createdAt,value
2022-11-23T00:01:35.473Z,73.25
2022-11-23T00:04:08.771Z,73.25
2022-11-23T00:06:36.703Z,73.31
2022-11-23T00:09:04.957Z,73.02
2022-11-23T00:11:34.752Z,73.34
2022-11-23T00:14:03.024Z,73.00
2022-11-23T00:19:15.838Z,73.04
2022-11-23T00:21:43.501Z,72.62
2022-11-23T00:24:13.185Z,72.78
2022-11-23T00:26:40.680Z,72.51
2022-11-23T00:29:08.463Z,72.50
2022-11-23T00:31:35.979Z,72.50
2022-11-23T00:34:03.510Z,72.75
2022-11-23T00:36:30.958Z,72.78
2022-11-23T00:39:00.859Z,72.55
2022-11-23T00:41:28.822Z,73.07
2022-11-23T00:43:56.261Z,72.85
2022-11-23T00:46:26.543Z,72.95
2022-11-23T00:48:56.771Z,72.68
2022-11-23T00:51:31.417Z,72.96
2022-11-23T00:54:00.085Z,72.56
2022-11-23T00:56:29.064Z,72.70
2022-11-23T00:58:58.587Z,72.67
2022-11-23T01:01:31.351Z,72.89
2022-11-23T01:04:02.594Z,72.92
2022-11-23T01:06:36.435Z,73.61
2022-11-23T01:09:16.110Z,73.30
2022-11-23T01:11:44.641Z,73.01
2022-11-23T01:14:12.759Z,73.17
2022-11-23T01:16:42.478Z,73.49
2022-11-23T01:19:13.368Z,73.37
2022-11-23T01:21:41.043Z,73.03
2022-11-23T01:24:13.952Z,73.05
2022-11-23T01:26:42.287Z,73.41
2022-11-23T01:29:10.196Z,73.31
2022-11-23T01:31:46.181Z,73.34
2022-11-23T01:34:16.140Z,73.33
2022-11-23T01:36:44.687Z,73.53
2022-11-23T01:39:12.538Z,73.26
2022-11-23T01:41:42.288Z,72.79
2022-11-23T01:44:30.419Z,73.37
2022-11-23T01:46:59.030Z,73.67
2022-11-23T01:49:30.304Z,72.63
2022-11-23T01:52:02.296Z,72.98
2022-11-23T01:54:45.640Z,73.01
2022-11-23T01:57:36.811Z,72.99
2022-11-23T02:00:05.212Z,72.64
2022-11-23T02:02:50.755Z,72.54
2022-11-23T02:05:23.010Z,72.82
2022-11-23T02:07:51.634Z,72.48
2022-11-23T02:10:20.891Z,72.48
2022-11-23T02:12:48.509Z,72.39
2022-11-23T02:15:36.821Z,72.45
2022-11-23T02:18:09.109Z,72.29
2022-11-23T02:20:37.299Z,72.64
2022-11-23T02:23:21.664Z,72.60
2022-11-23T02:26:13.719Z,72.82
2022-11-23T02:28:47.547Z,72.92
2022-11-23T02:31:15.096Z,72.41
2022-11-23T02:33:42.551Z,72.94
2022-11-23T02:36:34.540Z,73.01
2022-11-23T02:39:11.900Z,72.66
2022-11-23T02:41:47.129Z,72.71
2022-11-23T02:44:42.640Z,73.30
2022-11-23T02:47:11.839Z,73.01
2022-11-23T02:49:42.082Z,73.49
2022-11-23T02:52:10.055Z,73.41
2022-11-23T02:54:37.531Z,72.85
2022-11-23T02:57:06.023Z,72.97
2022-11-23T02:59:34.721Z,73.32
2022-11-23T03:02:04.418Z,73.09
2022-11-23T03:04:32.270Z,73.03
2022-11-23T03:06:59.777Z,73.25
2022-11-23T03:09:28.397Z,72.88
2022-11-23T03:11:56.298Z,73.35
2022-11-23T03:14:25.956Z,73.21
2022-11-23T03:16:59.893Z,73.23
2022-11-23T03:19:31.008Z,73.37
2022-11-23T03:21:58.887Z,73.39
2022-11-23T03:24:26.399Z,73.43
2022-11-23T03:26:56.080Z,73.66
2022-11-23T03:29:26.568Z,73.27
2022-11-23T03:31:56.123Z,73.16
2022-11-23T03:34:25.376Z,73.48
2022-11-23T03:36:53.319Z,73.39
2022-11-23T03:39:21.261Z,73.20
2022-11-23T03:42:07.577Z,72.89
2022-11-23T03:44:36.316Z,73.11
2022-11-23T03:47:05.454Z,73.02
2022-11-23T03:49:35.864Z,73.42
2022-11-23T03:52:04.362Z,72.94
2022-11-23T03:54:31.819Z,73.50
2022-11-23T03:57:00.443Z,73.35
2022-11-23T03:59:28.029Z,72.95
2022-11-23T04:01:56.516Z,73.03
2022-11-23T04:04:28.108Z,72.90
2022-11-23T04:07:04.858Z,72.89
2022-11-23T04:09:36.274Z,73.23
2022-11-23T04:12:07.009Z,72.94
2022-11-23T04:14:37.342Z,73.27
2022-11-23T04:17:04.923Z,73.18
2022-11-23T04:19:33.675Z,73.49
2022-11-23T04:22:01.622Z,73.11
2022-11-23T04:24:34.931Z,73.59
2022-11-23T04:27:05.297Z,73.11
2022-11-23T04:29:33.771Z,73.19
2022-11-23T04:32:02.156Z,73.18
2022-11-23T04:34:29.835Z,72.90
2022-11-23T04:36:57.453Z,73.06
2022-11-23T04:39:31.635Z,73.18
2022-11-23T04:42:25.461Z,73.17
2022-11-23T04:44:58.162Z,73.03
2022-11-23T04:47:28.043Z,72.89
2022-11-23T04:49:59.403Z,72.77
2022-11-23T04:52:26.886Z,73.20
2022-11-23T04:54:54.648Z,72.56
2022-11-23T04:57:23.380Z,72.59
2022-11-23T04:59:53.110Z,73.07
2022-11-23T05:02:20.669Z,72.80
2022-11-23T05:04:51.111Z,72.92
2022-11-23T05:07:20.013Z,72.82
2022-11-23T05:09:54.314Z,73.13
2022-11-23T05:12:23.077Z,73.04
2022-11-23T05:14:51.308Z,73.07
2022-11-23T05:17:27.862Z,73.10
2022-11-23T05:19:56.526Z,73.28
2022-11-23T05:22:25.406Z,73.08
2022-11-23T05:24:53.955Z,72.66
2022-11-23T05:27:24.655Z,72.61
2022-11-23T05:29:52.358Z,72.88
2022-11-23T05:32:19.957Z,73.07
2022-11-23T05:34:48.634Z,73.04
2022-11-23T05:37:17.878Z,72.49
2022-11-23T05:39:57.847Z,72.68
2022-11-23T05:42:25.796Z,72.73
2022-11-23T05:44:56.891Z,72.55
2022-11-23T05:47:33.210Z,72.34
2022-11-23T05:50:03.867Z,72.50
2022-11-23T05:52:32.621Z,72.40
2022-11-23T05:55:00.215Z,72.44
2022-11-23T05:57:27.813Z,72.29
2022-11-23T05:59:55.931Z,72.20
2022-11-23T06:02:33.687Z,72.73
2022-11-23T06:05:03.275Z,72.72
2022-11-23T06:07:40.322Z,72.46
2022-11-23T06:10:12.545Z,72.15
2022-11-23T06:12:45.783Z,72.71
2022-11-23T06:15:16.326Z,72.65
2022-11-23T06:17:45.871Z,72.37
2022-11-23T06:20:17.256Z,72.75
2022-11-23T06:22:55.288Z,72.98
2022-11-23T06:25:25.234Z,72.90
2022-11-23T06:28:15.684Z,72.74
2022-11-23T06:30:46.832Z,72.66
2022-11-23T06:33:15.021Z,73.01
2022-11-23T06:35:54.944Z,72.59
2022-11-23T06:38:24.297Z,72.88
2022-11-23T06:41:01.119Z,72.41
2022-11-23T06:43:30.947Z,72.26
2022-11-23T06:46:03.060Z,72.33
2022-11-23T06:48:30.720Z,72.50
2022-11-23T06:51:00.831Z,72.51
2022-11-23T06:53:30.800Z,72.57
2022-11-23T06:56:08.324Z,72.34
2022-11-23T06:58:37.115Z,72.59
2022-11-23T07:01:10.234Z,72.39
2022-11-23T07:03:46.752Z,72.71
2022-11-23T07:06:26.400Z,72.15
2022-11-23T07:08:57.507Z,72.30
2022-11-23T07:11:38.761Z,72.12
2022-11-23T07:14:06.451Z,72.02
2022-11-23T07:16:37.327Z,72.41
2022-11-23T07:19:05.123Z,72.14
2022-11-23T07:21:32.593Z,72.23
2022-11-23T07:24:00.103Z,72.34
2022-11-23T07:26:27.628Z,71.87
2022-11-23T07:28:55.327Z,72.08
2022-11-23T07:31:22.978Z,72.22
2022-11-23T07:33:50.810Z,72.19
2022-11-23T07:36:18.355Z,71.82
2022-11-23T07:38:46.909Z,71.52
2022-11-23T07:41:18.136Z,71.75
2022-11-23T07:44:06.086Z,71.59
2022-11-23T07:46:33.784Z,71.77
2022-11-23T07:49:02.412Z,71.52
2022-11-23T07:51:30.282Z,71.42
2022-11-23T07:53:58.034Z,71.69
2022-11-23T07:56:25.842Z,71.36
2022-11-23T07:58:53.516Z,71.81
2022-11-23T08:01:21.047Z,71.10
2022-11-23T08:03:49.162Z,71.34
2022-11-23T08:06:17.267Z,71.41
2022-11-23T08:08:47.135Z,71.07
2022-11-23T08:11:17.187Z,71.20
2022-11-23T08:13:45.323Z,71.00
2022-11-23T08:16:12.931Z,71.19
2022-11-23T08:18:40.485Z,71.07
2022-11-23T08:21:08.017Z,71.24
2022-11-23T08:23:35.539Z,71.03
2022-11-23T08:26:07.831Z,71.24
2022-11-23T08:28:40.078Z,71.42
2022-11-23T08:31:09.339Z,71.18
2022-11-23T08:33:37.014Z,71.55
2022-11-23T08:36:06.422Z,71.06
2022-11-23T08:38:34.861Z,71.15
2022-11-23T08:41:05.469Z,71.28
2022-11-23T08:43:33.414Z,70.65
2022-11-23T08:46:04.834Z,70.69
2022-11-23T08:48:35.481Z,71.01
2022-11-23T08:51:02.986Z,71.00
2022-11-23T08:53:30.606Z,70.75
2022-11-23T08:56:01.508Z,70.58
2022-11-23T08:58:29.021Z,70.36
2022-11-23T09:00:56.492Z,70.73
2022-11-23T09:03:24.137Z,70.54
2022-11-23T09:05:51.588Z,70.57
2022-11-23T09:08:19.066Z,70.32
2022-11-23T09:10:46.499Z,70.37
2022-11-23T09:13:14.083Z,70.23
2022-11-23T09:15:41.584Z,69.84
2022-11-23T09:18:09.596Z,69.86
2022-11-23T09:20:39.411Z,70.14
2022-11-23T09:23:13.570Z,69.90
2022-11-23T09:25:43.378Z,70.22
2022-11-23T09:28:12.791Z,69.92
2022-11-23T09:30:43.199Z,69.51
2022-11-23T09:33:10.827Z,70.05
2022-11-23T09:35:43.440Z,70.14
2022-11-23T09:38:11.551Z,69.62
2022-11-23T09:40:40.896Z,69.76
2022-11-23T09:43:34.365Z,69.97
2022-11-23T09:46:10.285Z,70.07
2022-11-23T09:48:46.537Z,69.75
2022-11-23T09:51:19.827Z,69.81
2022-11-23T09:53:52.850Z,69.88
2022-11-23T09:56:28.255Z,70.16
2022-11-23T09:58:59.753Z,70.07
2022-11-23T10:01:30.959Z,69.71
2022-11-23T10:03:58.991Z,70.12
2022-11-23T10:06:29.437Z,69.98
2022-11-23T10:09:30.552Z,69.79
2022-11-23T10:12:11.254Z,69.95
2022-11-23T10:14:53.760Z,70.22
2022-11-23T10:17:29.361Z,70.08
2022-11-23T10:19:56.820Z,70.13
2022-11-23T10:22:37.372Z,70.46
2022-11-23T10:25:15.728Z,70.77
2022-11-23T10:27:45.151Z,70.56
2022-11-23T10:30:14.479Z,70.16
2022-11-23T10:32:44.370Z,70.32
2022-11-23T10:35:18.470Z,70.08
2022-11-23T10:37:46.052Z,70.29
2022-11-23T10:40:18.116Z,70.37
2022-11-23T10:42:52.235Z,70.39
2022-11-23T10:45:25.677Z,70.41
2022-11-23T10:48:01.635Z,70.65
2022-11-23T10:50:33.599Z,70.50
2022-11-23T10:53:28.648Z,70.67
2022-11-23T10:55:59.860Z,70.25
2022-11-23T10:58:36.023Z,71.16
2022-11-23T11:01:07.774Z,70.78
2022-11-23T11:03:35.915Z,70.62
2022-11-23T11:06:09.036Z,70.45
2022-11-23T11:08:50.614Z,71.24
2022-11-23T11:11:25.355Z,71.03
2022-11-23T11:14:15.364Z,70.91
2022-11-23T11:16:58.537Z,71.19
2022-11-23T11:19:28.905Z,71.03
2022-11-23T11:22:02.347Z,70.79
2022-11-23T11:24:44.174Z,71.33
2022-11-23T11:27:22.295Z,71.29
2022-11-23T11:29:58.216Z,71.01
2022-11-23T11:32:46.031Z,71.02
2022-11-23T11:35:39.060Z,71.00
2022-11-23T11:38:24.795Z,70.85
2022-11-23T11:40:54.834Z,70.57
2022-11-23T11:43:47.477Z,70.67
2022-11-23T11:46:31.141Z,70.15
2022-11-23T11:49:15.243Z,70.30
2022-11-23T11:52:23.861Z,70.83
2022-11-23T11:55:22.818Z,70.50
2022-11-23T11:58:01.666Z,70.43
2022-11-23T12:00:33.600Z,70.38
2022-11-23T12:03:22.197Z,70.78
2022-11-23T12:05:52.344Z,70.47
2022-11-23T12:08:22.719Z,70.36
2022-11-23T12:10:53.779Z,70.16
2022-11-23T12:13:29.905Z,70.66
2022-11-23T12:16:22.134Z,70.77
2022-11-23T12:19:14.509Z,70.62
2022-11-23T12:21:55.906Z,70.51
2022-11-23T12:24:41.939Z,71.13
2022-11-23T12:27:27.539Z,70.90
2022-11-23T12:30:22.426Z,70.78
2022-11-23T12:32:56.040Z,70.62
2022-11-23T12:35:48.571Z,71.29
2022-11-23T12:38:52.867Z,71.15
2022-11-23T12:41:29.657Z,70.75
2022-11-23T12:44:06.100Z,71.25
2022-11-23T12:46:33.552Z,70.95
2022-11-23T12:49:11.580Z,70.89
2022-11-23T12:51:47.727Z,70.87
2022-11-23T12:54:15.260Z,70.85
2022-11-23T12:57:00.903Z,71.07
2022-11-23T12:59:41.432Z,70.85
2022-11-23T13:02:17.436Z,70.96
2022-11-23T13:05:05.048Z,70.62
2022-11-23T13:08:03.810Z,70.62
2022-11-23T13:10:43.374Z,70.44
2022-11-23T13:13:33.357Z,70.68
2022-11-23T13:16:19.191Z,70.76
2022-11-23T13:19:05.019Z,70.89
2022-11-23T13:21:46.303Z,70.46
2022-11-23T13:25:01.896Z,70.91
2022-11-23T13:27:42.235Z,70.85
2022-11-23T13:30:45.535Z,70.85
2022-11-23T13:33:22.309Z,70.59
2022-11-23T13:35:56.475Z,70.74
2022-11-23T13:38:35.603Z,70.84
2022-11-23T13:41:03.931Z,70.67
2022-11-23T13:43:33.740Z,70.76
2022-11-23T13:46:23.579Z,70.90
2022-11-23T13:48:57.632Z,70.55
2022-11-23T13:51:27.164Z,70.73
2022-11-23T13:54:00.382Z,70.89
2022-11-23T13:56:41.396Z,71.34
2022-11-23T13:59:23.620Z,71.24
2022-11-23T14:02:10.364Z,71.25
2022-11-23T14:04:40.621Z,70.81
2022-11-23T14:07:11.235Z,71.12
2022-11-23T14:09:53.073Z,70.71
2022-11-23T14:12:50.745Z,71.11
2022-11-23T14:15:21.333Z,71.07
2022-11-23T14:18:27.769Z,70.98
2022-11-23T14:21:33.300Z,70.88
2022-11-23T14:24:26.843Z,70.57
2022-11-23T14:30:21.360Z,71.16
2022-11-23T14:33:04.101Z,71.14
2022-11-23T14:36:09.159Z,71.66
2022-11-23T14:39:21.282Z,71.37
2022-11-23T14:41:56.431Z,71.63
2022-11-23T14:44:27.422Z,71.38
2022-11-23T14:47:06.534Z,71.44
2022-11-23T14:49:34.475Z,70.97
2022-11-23T14:52:04.841Z,71.08
2022-11-23T14:54:32.968Z,70.97
2022-11-23T14:57:03.656Z,71.29
2022-11-23T14:59:35.924Z,71.49
2022-11-23T15:02:23.060Z,71.58
2022-11-23T15:05:02.719Z,71.69
2022-11-23T15:07:55.299Z,71.15
2022-11-23T15:10:34.997Z,71.03
2022-11-23T15:13:26.870Z,71.36
2022-11-23T15:15:56.521Z,70.90
2022-11-23T15:18:43.047Z,71.32
2022-11-23T15:21:26.571Z,71.45
2022-11-23T15:23:57.967Z,71.07
2022-11-23T15:29:31.401Z,71.07
2022-11-23T15:32:28.463Z,70.95
2022-11-23T15:34:47.969Z,70.88
2022-11-23T15:37:16.964Z,70.63
2022-11-23T15:39:44.987Z,70.69
2022-11-23T15:42:18.527Z,70.90
2022-11-23T15:44:51.405Z,70.31
2022-11-23T15:47:28.129Z,70.91
2022-11-23T15:50:10.314Z,70.65
2022-11-23T15:52:38.070Z,70.62
2022-11-23T15:55:10.173Z,70.37
2022-11-23T15:57:39.705Z,70.65
2022-11-23T16:00:09.639Z,70.62
2022-11-23T16:02:40.049Z,70.27
2022-11-23T16:05:14.973Z,70.98
2022-11-23T16:07:51.618Z,70.51
2022-11-23T16:10:33.541Z,70.29
2022-11-23T16:13:04.044Z,70.53
2022-11-23T16:15:37.856Z,70.45
2022-11-23T16:18:26.005Z,70.36
2022-11-23T16:21:02.547Z,69.98
2022-11-23T16:23:46.032Z,70.36
2022-11-23T16:26:14.362Z,70.20
2022-11-23T16:29:00.655Z,70.35
2022-11-23T16:31:37.101Z,70.29
2022-11-23T16:34:13.572Z,70.44
2022-11-23T16:36:41.197Z,69.99
2022-11-23T16:39:08.657Z,70.49
2022-11-23T16:41:36.672Z,70.53
2022-11-23T16:44:04.448Z,70.45
2022-11-23T16:46:32.571Z,70.58
2022-11-23T16:49:00.739Z,70.43
2022-11-23T16:51:28.463Z,70.19
2022-11-23T16:54:14.732Z,69.96
2022-11-23T16:56:45.366Z,70.25
2022-11-23T16:59:18.577Z,70.21
2022-11-23T17:01:52.513Z,69.93
2022-11-23T17:04:23.283Z,70.18
2022-11-23T17:06:50.883Z,70.20
2022-11-23T17:09:18.337Z,70.41
2022-11-23T17:11:50.432Z,69.90
2022-11-23T17:14:19.682Z,70.22
2022-11-23T17:16:48.269Z,70.02
2022-11-23T17:19:17.575Z,69.90
2022-11-23T17:21:45.795Z,69.97
2022-11-23T17:24:14.175Z,70.41
2022-11-23T17:26:52.838Z,70.12
2022-11-23T17:29:21.586Z,70.07
2022-11-23T17:31:51.234Z,70.26
2022-11-23T17:34:18.780Z,69.91
2022-11-23T17:36:48.602Z,70.23
2022-11-23T17:39:21.032Z,70.02
2022-11-23T17:41:48.809Z,70.19
2022-11-23T17:44:17.654Z,69.92
2022-11-23T17:46:47.086Z,70.02
2022-11-23T17:49:20.090Z,69.98
2022-11-23T17:51:47.652Z,70.01
2022-11-23T17:54:15.089Z,69.80
2022-11-23T17:56:43.109Z,70.12
2022-11-23T17:59:10.631Z,70.09
2022-11-23T18:01:38.247Z,69.75
2022-11-23T18:04:05.832Z,70.02
2022-11-23T18:06:33.452Z,69.93
2022-11-23T18:09:00.919Z,70.01
2022-11-23T18:11:28.805Z,70.38
2022-11-23T18:13:56.453Z,70.15
2022-11-23T18:16:24.518Z,70.16
2022-11-23T18:18:52.087Z,70.55
2022-11-23T18:21:20.058Z,70.33
2022-11-23T18:23:47.555Z,70.28
2022-11-23T18:26:17.658Z,69.95
2022-11-23T18:28:45.267Z,69.91
2022-11-23T18:31:12.882Z,69.99
2022-11-23T18:33:41.032Z,70.11
2022-11-23T18:36:09.309Z,70.48
2022-11-23T18:38:38.120Z,70.25
2022-11-23T18:41:06.442Z,69.94
2022-11-23T18:43:34.297Z,70.15
2022-11-23T18:46:08.590Z,70.34
2022-11-23T18:48:37.443Z,70.21
2022-11-23T18:51:05.756Z,70.30
2022-11-23T18:53:33.495Z,70.22
2022-11-23T18:56:05.022Z,70.17
2022-11-23T18:58:38.676Z,70.02
2022-11-23T19:01:18.457Z,69.86
2022-11-23T19:03:50.455Z,70.05
2022-11-23T19:06:20.262Z,69.76
2022-11-23T19:08:50.127Z,70.09
2022-11-23T19:11:23.060Z,69.97
2022-11-23T19:13:53.445Z,69.73
2022-11-23T19:16:27.023Z,69.75
2022-11-23T19:18:58.465Z,70.01
2022-11-23T19:21:28.677Z,69.95
2022-11-23T19:23:57.410Z,70.27
2022-11-23T19:26:26.400Z,69.91
2022-11-23T19:28:54.642Z,70.24
2022-11-23T19:31:26.623Z,69.94
2022-11-23T19:33:57.381Z,70.17
2022-11-23T19:36:25.754Z,69.88
2022-11-23T19:38:55.409Z,70.01
2022-11-23T19:41:29.594Z,70.00
2022-11-23T19:43:59.172Z,69.86
2022-11-23T19:46:27.213Z,69.60
2022-11-23T19:48:57.288Z,69.74
2022-11-23T19:51:26.023Z,69.74
2022-11-23T19:53:57.227Z,69.92
2022-11-23T19:56:26.319Z,69.85
2022-11-23T19:58:55.318Z,69.69
2022-11-23T20:01:24.953Z,69.77
2022-11-23T20:03:55.089Z,69.37
2022-11-23T20:06:28.367Z,69.05
2022-11-23T20:09:04.617Z,68.52
2022-11-23T20:11:33.818Z,68.99
2022-11-23T20:14:01.825Z,68.96
2022-11-23T20:16:32.102Z,69.24
2022-11-23T20:19:02.262Z,69.36
2022-11-23T20:21:30.864Z,68.98
2022-11-23T20:24:11.669Z,69.61
2022-11-23T20:26:47.694Z,68.98
2022-11-23T20:29:15.238Z,69.11
2022-11-23T20:31:42.898Z,68.51
2022-11-23T20:34:15.334Z,68.45
2022-11-23T20:36:45.891Z,68.12
2022-11-23T20:39:14.301Z,68.57
2022-11-23T20:41:45.223Z,68.33
2022-11-23T20:44:14.382Z,68.19
2022-11-23T20:49:30.416Z,68.42
2022-11-23T20:51:58.990Z,68.63
2022-11-23T20:54:27.087Z,68.53
2022-11-23T20:56:54.802Z,68.51
2022-11-23T20:59:23.991Z,68.89
2022-11-23T21:01:52.537Z,68.69
2022-11-23T21:04:20.120Z,68.86
2022-11-23T21:06:47.562Z,68.70
2022-11-23T21:09:17.156Z,68.69
2022-11-23T21:12:03.528Z,68.59
2022-11-23T21:14:33.013Z,68.65
2022-11-23T21:17:01.376Z,68.44
2022-11-23T21:19:33.236Z,68.28
2022-11-23T21:22:12.272Z,68.26
2022-11-23T21:24:40.599Z,68.12
2022-11-23T21:27:12.305Z,68.55
2022-11-23T21:29:40.093Z,68.62
2022-11-23T21:32:07.765Z,68.34
2022-11-23T21:34:35.570Z,68.19
2022-11-23T21:37:03.208Z,68.22
2022-11-23T21:39:31.319Z,68.63
2022-11-23T21:41:59.109Z,68.31
2022-11-23T21:44:26.549Z,68.20
2022-11-23T21:46:57.180Z,68.28
2022-11-23T21:49:33.285Z,68.10
2022-11-23T21:52:03.075Z,68.32
2022-11-23T21:54:30.557Z,68.51
2022-11-23T21:56:58.390Z,68.24
2022-11-23T21:59:25.883Z,68.37
2022-11-23T22:01:57.238Z,68.17
2022-11-23T22:04:24.888Z,68.08
2022-11-23T22:06:52.319Z,68.04
2022-11-23T22:09:19.784Z,68.33
2022-11-23T22:11:47.203Z,68.27
2022-11-23T22:14:16.458Z,68.21
2022-11-23T22:16:46.143Z,67.88
2022-11-23T22:19:15.224Z,68.19
2022-11-23T22:21:44.576Z,68.16
2022-11-23T22:24:14.919Z,67.94
2022-11-23T22:26:42.996Z,68.03
2022-11-23T22:29:10.879Z,68.26
2022-11-23T22:31:38.843Z,68.25
2022-11-23T22:34:10.276Z,67.95
2022-11-23T22:36:37.712Z,68.30
2022-11-23T22:39:06.822Z,68.20
2022-11-23T22:41:37.365Z,68.03
2022-11-23T22:44:07.674Z,67.82
2022-11-23T22:46:36.281Z,67.70
2022-11-23T22:49:04.002Z,67.45
2022-11-23T22:51:31.830Z,67.04
2022-11-23T22:54:00.748Z,67.31
2022-11-23T22:56:29.815Z,67.08
2022-11-23T22:58:57.389Z,66.93
2022-11-23T23:01:30.097Z,67.04
2022-11-23T23:03:59.806Z,66.40
2022-11-23T23:06:29.805Z,66.68
2022-11-23T23:08:59.884Z,65.98
2022-11-23T23:11:29.923Z,66.43
2022-11-23T23:13:58.184Z,66.49
2022-11-23T23:16:26.572Z,65.96
2022-11-23T23:18:58.005Z,66.12
2022-11-23T23:21:27.295Z,65.77
2022-11-23T23:23:58.306Z,65.92
2022-11-23T23:26:27.458Z,65.83
2022-11-23T23:28:57.109Z,65.28
2022-11-23T23:31:25.998Z,65.32
2022-11-23T23:33:57.213Z,65.80
2022-11-23T23:36:25.075Z,65.21
2022-11-23T23:38:52.811Z,65.22
2022-11-23T23:41:20.580Z,65.28
2022-11-23T23:43:48.356Z,65.52
2022-11-23T23:46:16.576Z,65.26
2022-11-23T23:48:44.709Z,65.79
2022-11-23T23:51:15.228Z,65.58
2022-11-23T23:53:43.923Z,65.69
2022-11-23T23:56:16.843Z,65.60
2022-11-23T23:58:45.597Z,65.49
